Time;durP1;ratioP1;P1;durP2;ratioP2;P2;SDS_P1;SDS_P2;PMS_P1;PMS_P2;Temp;Humidity;BMP_temperature;BMP_pressure;BME280_temperature;BME280_humidity;BME280_pressure;Samples;Min_cycle;Max_cycle;Signal;HPM_P1;HPM_P2
2023/01/30 11:47:08;;;;;;;5.17;4.07;;;;;;;2.49;100.00;98871.22;5172549;27;20555;-89
2023/01/30 11:49:41;;;;;;;4.67;3.70;;;;;;;3.22;100.00;98902.06;5136562;27;38824;-86
2023/01/30 11:52:11;;;;;;;4.63;3.47;;;;;;;3.80;100.00;98929.81;5136981;27;41714;-86
2023/01/30 11:54:43;;;;;;;3.83;3.33;;;;;;;4.12;99.77;98931.31;5153849;27;41987;-86
2023/01/30 11:57:13;;;;;;;4.30;3.90;;;;;;;4.53;95.30;98916.72;5136446;27;41010;-87
2023/01/30 11:59:44;;;;;;;4.20;3.30;;;;;;;5.33;93.47;98904.81;5136520;27;39767;-85
2023/01/30 12:02:19;;;;;;;3.60;3.10;;;;;;;6.01;88.23;98924.78;5170756;27;40927;-83
2023/01/30 12:04:52;;;;;;;3.97;3.43;;;;;;;6.87;83.59;98923.56;5136317;27;43091;-88
2023/01/30 12:07:23;;;;;;;3.20;2.90;;;;;;;7.25;77.84;98927.88;5151648;27;42343;-83
2023/01/30 12:09:53;;;;;;;3.20;2.90;;;;;;;8.52;74.60;98954.03;5136481;27;40288;-84
2023/01/30 12:12:28;;;;;;;3.90;3.10;;;;;;;9.54;69.35;98959.81;5153180;27;41693;-86
2023/01/30 12:15:05;;;;;;;3.60;3.30;;;;;;;8.97;66.94;98969.19;5136432;27;41880;-85
2023/01/30 12:17:42;;;;;;;3.40;3.10;;;;;;;8.45;67.71;98936.78;5136221;27;44898;-83
2023/01/30 12:20:17;;;;;;;4.63;3.17;;;;;;;8.88;67.12;98917.75;5136198;27;38926;-83
2023/01/30 12:22:52;;;;;;;3.30;3.00;;;;;;;8.85;66.85;98901.19;5135954;27;40680;-84
2023/01/30 12:25:25;;;;;;;3.50;2.97;;;;;;;8.67;66.15;98908.31;5135959;27;41887;-86
2023/01/30 12:27:59;;;;;;;2.70;2.50;;;;;;;8.23;66.87;98882.47;5170535;27;40907;-89
2023/01/30 12:30:47;;;;;;;2.63;2.40;;;;;;;7.86;67.78;98867.72;5137516;27;39982;-86
2023/01/30 12:33:18;;;;;;;3.63;2.63;;;;;;;7.64;68.33;98856.56;5138737;27;41577;-84
2023/01/30 12:36:02;;;;;;;3.73;3.00;;;;;;;7.51;69.41;98860.75;5170993;27;41717;-88
2023/01/30 12:38:57;;;;;;;3.23;2.63;;;;;;;7.48;70.28;98877.56;5136736;27;41918;-85
2023/01/30 12:41:38;;;;;;;3.23;2.87;;;;;;;7.14;70.89;98873.09;5136152;27;39787;-90
2023/01/30 12:44:31;;;;;;;3.47;2.70;;;;;;;6.94;71.95;98843.38;5135810;27;40716;-87
2023/01/30 12:47:21;;;;;;;3.23;2.20;;;;;;;6.88;72.59;98855.06;5135953;27;43156;-91
2023/01/30 12:50:06;;;;;;;2.77;2.57;;;;;;;6.87;73.21;98855.13;5136329;27;42456;-89
2023/01/30 12:52:51;;;;;;;2.83;2.40;;;;;;;6.62;73.04;98822.06;5136066;27;39266;-87
2023/01/30 12:55:26;;;;;;;4.93;2.90;;;;;;;6.82;74.63;98871.97;5135117;27;40867;-87
2023/01/30 12:58:02;;;;;;;3.00;2.50;;;;;;;6.53;75.30;98830.41;5124034;27;41797;-86
2023/01/30 13:00:55;;;;;;;6.27;3.30;;;;;;;6.48;76.55;98856.91;5122464;27;41300;-87
2023/01/30 13:03:31;;;;;;;6.27;3.20;;;;;;;6.01;77.07;98803.84;5138853;27;38875;-85
2023/01/30 13:06:13;;;;;;;4.87;3.53;;;;;;;6.38;77.47;98841.63;5138629;27;41744;-88
2023/01/30 13:08:52;;;;;;;4.43;3.23;;;;;;;6.62;77.28;98885.22;5121086;27;41828;-85
2023/01/30 13:11:37;;;;;;;4.60;3.33;;;;;;;6.60;76.98;98884.44;5155644;27;42058;-83
2023/01/30 13:14:17;;;;;;;3.87;2.70;;;;;;;6.38;77.00;98810.91;5154389;27;40689;-87
2023/01/30 13:16:59;;;;;;;3.63;3.10;;;;;;;6.92;75.98;98897.91;5121162;27;41731;-88
2023/01/30 13:19:35;;;;;;;2.97;2.67;;;;;;;7.18;74.77;98893.06;5155027;27;41954;-85
2023/01/30 13:22:12;;;;;;;4.77;2.70;;;;;;;7.29;73.88;98875.91;5120951;27;43153;-86
2023/01/30 13:24:51;;;;;;;3.67;2.97;;;;;;;7.51;73.49;98901.13;5155807;27;39667;-91
2023/01/30 13:27:23;;;;;;;3.30;3.00;;;;;;;7.41;72.59;98893.75;5155535;27;40392;-88
2023/01/30 13:29:52;;;;;;;3.93;2.70;;;;;;;7.10;72.70;98854.88;5155577;27;41693;-89
2023/01/30 13:32:35;;;;;;;3.53;2.73;;;;;;;7.57;72.18;98923.66;5155425;27;41117;-86
2023/01/30 13:35:06;;;;;;;2.97;2.67;;;;;;;7.47;72.28;98912.75;5121496;27;40348;-89
2023/01/30 13:37:38;;;;;;;3.20;2.67;;;;;;;7.41;72.09;98907.78;5121958;27;41013;-89
2023/01/30 13:40:16;;;;;;;2.83;2.43;;;;;;;7.05;72.69;98860.34;5122518;27;41998;-88
2023/01/30 13:42:53;;;;;;;3.03;2.73;;;;;;;7.09;73.39;98900.56;5120516;27;41435;-86
2023/01/30 13:45:24;;;;;;;2.40;2.20;;;;;;;6.63;74.52;98850.09;5154535;27;39176;-86
2023/01/30 13:48:06;;;;;;;3.50;2.80;;;;;;;6.88;74.53;98906.84;5120361;27;40907;-86
2023/01/30 13:51:06;;;;;;;4.30;2.50;;;;;;;6.55;75.18;98872.44;5120703;27;41726;-86
2023/01/30 13:53:54;;;;;;;2.40;2.10;;;;;;;6.30;75.85;98864.81;5120309;27;41175;-90
2023/01/30 13:56:29;;;;;;;3.43;2.43;;;;;;;6.31;76.04;98884.88;5155052;27;39943;-86
2023/01/30 13:59:09;;;;;;;3.87;2.73;;;;;;;6.26;77.04;98900.03;5120516;27;41708;-84
2023/01/30 14:04:57;;;;;;;2.77;2.30;;;;;;;6.24;78.15;98900.09;5107665;27;41282;-86
2023/01/30 14:07:29;;;;;;;2.47;2.27;;;;;;;6.43;78.29;98915.91;5120483;27;39161;-84
2023/01/30 14:10:15;;;;;;;2.50;2.23;;;;;;;6.50;78.04;98917.34;5119612;27;41652;-83
2023/01/30 14:12:46;;;;;;;2.43;2.00;;;;;;;6.43;77.68;98910.63;5120034;27;41750;-86
2023/01/30 14:15:27;;;;;;;3.00;2.17;;;;;;;6.62;77.54;98927.31;5120200;27;41308;-85
2023/01/30 14:18:01;;;;;;;2.50;2.30;;;;;;;7.01;77.72;98910.63;5120018;27;40262;-86
2023/01/30 14:20:38;;;;;;;2.70;2.30;;;;;;;7.84;73.47;98905.63;5120490;27;41823;-86
2023/01/30 14:24:16;;;;;;;3.20;2.30;;;;;;;8.12;71.04;98952.56;5120216;27;42059;-86
2023/01/30 14:27:26;;;;;;;3.93;2.53;;;;;;;7.54;70.33;98889.59;5118167;27;41486;-86
2023/01/30 14:30:38;;;;;;;2.73;2.23;;;;;;;7.43;70.71;98884.81;5120229;27;39242;-86
2023/01/30 14:33:48;;;;;;;3.10;2.20;;;;;;;7.32;70.71;98913.47;5153848;27;40870;-90
2023/01/30 14:36:37;;;;;;;2.30;2.07;;;;;;;7.80;70.59;98978.75;5119985;27;41653;-86
2023/01/30 14:39:46;;;;;;;4.90;2.10;;;;;;;7.98;69.98;98986.69;5119915;27;41383;-86
2023/01/30 14:42:23;;;;;;;2.17;1.87;;;;;;;7.96;69.75;98978.00;5119574;27;40066;-91
2023/01/30 14:45:17;;;;;;;1.90;1.60;;;;;;;7.87;70.25;98974.03;5119636;27;40698;-84
2023/01/30 14:47:48;;;;;;;1.70;1.60;;;;;;;7.42;70.73;98951.63;5120560;27;42877;-89
2023/01/30 14:50:21;;;;;;;4.03;1.93;;;;;;;7.43;72.05;98963.88;5155271;27;41102;-89
2023/01/30 14:52:56;;;;;;;2.90;2.00;;;;;;;7.06;72.27;98884.91;5154397;27;39235;-89
2023/01/30 14:55:59;;;;;;;1.90;1.80;;;;;;;7.71;71.56;98971.28;5119703;27;42206;-88
2023/01/30 14:58:33;;;;;;;2.93;1.70;;;;;;;7.41;71.50;98928.88;5120457;27;43405;-83
2023/01/30 15:01:23;;;;;;;2.90;1.87;;;;;;;7.16;71.36;98902.00;5154764;27;41244;-85
2023/01/30 15:04:16;;;;;;;2.33;1.70;;;;;;;7.16;71.52;98926.56;5119107;27;40504;-90
2023/01/30 15:06:44;;;;;;;2.53;2.07;;;;;;;7.34;71.93;98969.59;5136210;27;42600;-85
2023/01/30 15:09:17;;;;;;;2.53;1.97;;;;;;;7.32;72.46;98981.13;5115319;27;42070;-90
2023/01/30 15:11:52;;;;;;;2.20;1.67;;;;;;;7.04;72.11;98969.25;5119978;27;41916;-91
2023/01/30 15:14:28;;;;;;;2.63;2.17;;;;;;;7.04;72.96;98992.09;5118775;27;39114;-93
2023/01/30 15:17:18;;;;;;;2.80;2.13;;;;;;;7.03;73.75;99011.47;5118360;27;40510;-87
2023/01/30 15:20:04;;;;;;;3.83;2.27;;;;;;;6.82;73.68;98995.69;5117039;27;42846;-88
2023/01/30 15:22:42;;;;;;;4.13;1.90;;;;;;;6.84;74.06;99029.84;5115061;27;42272;-88
2023/01/30 15:25:31;;;;;;;4.63;2.30;;;;;;;6.71;74.35;99011.09;5118370;27;39940;-85
2023/01/30 15:28:12;;;;;;;3.73;2.27;;;;;;;6.52;74.77;99009.38;5114093;27;41626;-83
2023/01/30 15:31:17;;;;;;;3.73;2.30;;;;;;;6.33;75.47;98977.72;5115599;27;41821;-85
2023/01/30 15:33:49;;;;;;;2.87;1.80;;;;;;;6.28;75.29;98982.34;5114139;27;41370;-86
2023/01/30 15:36:25;;;;;;;3.13;2.13;;;;;;;6.43;75.75;99021.97;5103258;27;39673;-89
2023/01/30 15:38:58;;;;;;;4.13;2.30;;;;;;;5.84;75.57;98940.34;5114924;27;42669;-88
2023/01/30 15:41:27;;;;;;;5.13;2.40;;;;;;;6.24;76.11;99017.59;5138250;27;41913;-88
2023/01/30 15:44:24;;;;;;;4.17;2.27;;;;;;;6.33;76.65;99048.75;5113971;27;41084;-86
2023/01/30 15:47:06;;;;;;;3.73;2.00;;;;;;;6.24;76.30;99041.25;5107111;27;38474;-85
2023/01/30 15:49:54;;;;;;;3.53;2.20;;;;;;;6.16;76.60;99022.31;5101168;27;42533;-91
2023/01/30 15:52:28;;;;;;;2.60;2.10;;;;;;;5.88;76.59;98981.41;5118353;27;42371;-92
2023/01/30 15:55:02;;;;;;;2.57;2.23;;;;;;;5.87;76.27;98987.53;5119573;27;40984;-88
2023/01/30 15:57:36;;;;;;;2.80;2.33;;;;;;;6.25;76.67;99053.47;5118184;27;39479;-87
2023/01/30 16:00:07;;;;;;;3.80;2.30;;;;;;;6.01;76.44;99023.81;5136150;27;41601;-88
2023/01/30 16:02:43;;;;;;;3.90;2.40;;;;;;;5.94;76.63;99017.94;5135716;27;42755;-91
2023/01/30 16:05:33;;;;;;;4.87;1.83;;;;;;;6.15;76.77;99065.31;5119097;27;41044;-91
2023/01/30 16:08:18;;;;;;;4.27;2.40;;;;;;;6.22;76.95;99095.69;5119357;27;39010;-88
2023/01/30 16:14:56;;;;;;;6.77;2.40;;;;;;;6.06;76.71;99075.25;5101511;27;43215;-87
2023/01/30 16:18:04;;;;;;;3.67;2.23;;;;;;;6.09;77.08;99101.44;5117809;27;42546;-87
2023/01/30 16:25:15;;;;;;;3.50;2.57;;;;;;;5.49;78.54;99072.28;5069328;28;42423;-88
2023/01/30 16:27:54;;;;;;;2.80;2.17;;;;;;;5.66;78.75;99106.66;5088671;28;42900;-87
2023/01/30 16:34:39;;;;;;;3.67;2.40;;;;;;;5.47;79.96;99126.66;5093635;27;40004;-86
2023/01/30 16:37:23;;;;;;;4.80;2.40;;;;;;;5.47;80.73;99124.88;5098169;28;41108;-90
2023/01/30 16:40:04;;;;;;;6.87;2.63;;;;;;;5.56;80.56;99131.56;5097646;28;42006;-86
2023/01/30 16:42:33;;;;;;;5.17;2.63;;;;;;;5.54;80.16;99118.50;5097614;28;41200;-87
2023/01/30 16:45:42;;;;;;;3.63;2.57;;;;;;;5.65;79.98;99113.69;5097604;28;39144;-87
